Terminal Aerodrome Forecast
Issued by NWS Upton, NY

Home | Current Version | Previous Version | Text Only | Print | Product List | Glossary On
Versions: 1 2 3 4 5 6 7 8 9 10 11 12 13 14 15 16 17 18 19 20 21 22 23 24 25 26 27 28 29 30 31 32 33 34 35
000
FTUS41 KOKX 180520
TAFBDR
TAF
KBDR 180520Z 1806/1906 16006KT P6SM BKN008
     FM180900 17006KT P6SM VCSH BKN008 OVC060
     FM181100 17007KT 5SM -SHRA BR VCTS SCT008 OVC025CB
     FM181300 17009KT 3SM -SHRA BR VCTS OVC015CB
      TEMPO 1813/1816 2SM +SHRA BR OVC009
     FM181700 17010KT P6SM SCT015 BKN030
     FM182200 19011KT 6SM -SHRA VCTS OVC030CB PROB30 1822/1824 2SM
      TSRA OVC015CB
     FM190500 19008KT 4SM BR VCSH OVC030=

USA.gov is the U.S. government's official web portal to all federal, state and local government web resources and services.